createdAt,value
2017-07-26T00:00:03.902Z,15.06
2017-07-26T00:00:57.892Z,15.04
2017-07-26T00:01:58.161Z,15.02
2017-07-26T00:02:46.047Z,15.03
2017-07-26T00:03:40.127Z,15.01
2017-07-26T00:04:34.074Z,15.01
2017-07-26T00:05:29.117Z,15.06
2017-07-26T00:06:24.158Z,15.08
2017-07-26T00:07:12.268Z,15.08
2017-07-26T00:08:12.306Z,15.12
2017-07-26T00:09:01.562Z,15.12
2017-07-26T00:09:50.307Z,15.18
2017-07-26T00:10:50.363Z,15.18
2017-07-26T00:11:45.310Z,15.19
2017-07-26T00:12:39.550Z,15.21
2017-07-26T00:13:34.436Z,15.20
2017-07-26T00:14:23.461Z,15.19
2017-07-26T00:15:11.604Z,15.19
2017-07-26T00:16:11.616Z,15.18
2017-07-26T00:17:05.608Z,15.20
2017-07-26T00:17:59.755Z,15.21
2017-07-26T00:19:00.000Z,15.22
2017-07-26T00:19:59.717Z,15.20
2017-07-26T00:20:54.796Z,15.18
2017-07-26T00:21:54.840Z,15.18
2017-07-26T00:22:49.847Z,15.18
2017-07-26T00:23:44.085Z,15.17
2017-07-26T00:24:37.867Z,15.21
2017-07-26T00:25:37.922Z,15.24
2017-07-26T00:26:27.010Z,15.23
2017-07-26T00:27:22.005Z,15.27
2017-07-26T00:28:16.381Z,15.26
2017-07-26T00:29:10.361Z,15.27
2017-07-26T00:30:05.119Z,15.29
2017-07-26T00:31:05.143Z,15.31
2017-07-26T00:32:00.220Z,15.34
2017-07-26T00:32:55.210Z,15.34
2017-07-26T00:33:55.522Z,15.36
2017-07-26T00:34:50.662Z,15.38
2017-07-26T00:35:44.351Z,15.37
2017-07-26T00:36:38.463Z,15.38
2017-07-26T00:37:39.469Z,15.39
2017-07-26T00:38:40.719Z,15.35
2017-07-26T00:39:34.573Z,15.35
2017-07-26T00:40:34.747Z,15.35
2017-07-26T00:41:29.571Z,15.36
2017-07-26T00:42:29.590Z,15.36
2017-07-26T00:43:18.649Z,15.35
2017-07-26T00:44:12.678Z,15.36
2017-07-26T00:45:07.752Z,15.36
2017-07-26T00:46:08.687Z,15.36
2017-07-26T00:47:02.860Z,15.36
2017-07-26T00:47:50.821Z,15.36
2017-07-26T00:48:45.158Z,15.36
2017-07-26T00:49:38.894Z,15.34
2017-07-26T00:50:33.937Z,15.36
2017-07-26T00:51:29.035Z,15.35
2017-07-26T00:52:23.083Z,15.35
2017-07-26T00:53:17.372Z,15.34
2017-07-26T00:54:17.397Z,15.33
2017-07-26T00:55:11.287Z,15.32
2017-07-26T00:56:00.163Z,15.31
2017-07-26T00:56:49.229Z,15.31
2017-07-26T00:57:43.266Z,15.31
2017-07-26T00:58:37.348Z,15.29
2017-07-26T00:59:26.353Z,15.32
2017-07-26T01:00:20.418Z,15.33
2017-07-26T01:01:21.459Z,15.32
2017-07-26T01:02:15.521Z,15.32
2017-07-26T01:03:03.532Z,15.33
2017-07-26T01:03:57.726Z,15.30
2017-07-26T01:04:51.602Z,15.29
2017-07-26T01:05:46.577Z,15.30
2017-07-26T01:06:40.706Z,15.30
2017-07-26T01:07:28.868Z,15.29
2017-07-26T01:08:23.940Z,15.26
2017-07-26T01:09:18.848Z,15.26
2017-07-26T01:10:12.818Z,15.27
2017-07-26T01:11:07.989Z,15.28
2017-07-26T01:12:02.181Z,15.27
2017-07-26T01:13:02.800Z,15.28
2017-07-26T01:13:56.239Z,15.27
2017-07-26T01:14:45.107Z,15.29
2017-07-26T01:15:39.044Z,15.27
2017-07-26T01:16:45.068Z,15.28
2017-07-26T01:17:40.094Z,15.28
2017-07-26T01:18:40.500Z,15.26
2017-07-26T01:19:29.233Z,15.26
2017-07-26T01:20:24.180Z,15.30
2017-07-26T01:21:24.257Z,15.30
2017-07-26T01:22:13.369Z,15.28
2017-07-26T01:23:01.292Z,15.27
2017-07-26T01:24:01.768Z,15.30
2017-07-26T01:24:50.615Z,15.28
2017-07-26T01:25:44.554Z,15.24
2017-07-26T01:26:33.517Z,15.24
2017-07-26T01:27:28.498Z,15.24
2017-07-26T01:28:28.821Z,15.25
2017-07-26T01:29:23.631Z,15.28
2017-07-26T01:30:18.638Z,15.26
2017-07-26T01:31:18.801Z,15.28
2017-07-26T01:32:13.756Z,15.28
2017-07-26T01:33:01.880Z,15.26
2017-07-26T01:33:56.062Z,15.26
2017-07-26T01:34:49.950Z,15.30
2017-07-26T01:35:44.978Z,15.30
2017-07-26T01:36:39.987Z,15.30
2017-07-26T01:37:39.941Z,15.31
2017-07-26T01:38:35.186Z,15.28
2017-07-26T01:39:29.048Z,15.28
2017-07-26T01:40:29.205Z,15.30
2017-07-26T01:41:30.082Z,15.31
2017-07-26T01:42:31.156Z,15.30
2017-07-26T01:43:26.432Z,15.30
2017-07-26T01:44:20.277Z,15.34
2017-07-26T01:45:20.220Z,15.34
2017-07-26T01:46:15.518Z,15.34
2017-07-26T01:47:04.403Z,15.34
2017-07-26T01:47:58.402Z,15.36
2017-07-26T01:48:53.427Z,15.38
2017-07-26T01:49:42.445Z,15.36
2017-07-26T01:50:36.693Z,15.36
2017-07-26T01:51:30.583Z,15.39
2017-07-26T01:52:25.554Z,15.40
2017-07-26T01:53:25.603Z,15.38
2017-07-26T01:54:13.647Z,15.40
2017-07-26T01:55:08.783Z,15.43
2017-07-26T01:56:02.702Z,15.42
2017-07-26T01:56:56.881Z,15.42
2017-07-26T01:57:50.835Z,15.43
2017-07-26T01:58:51.817Z,15.40
2017-07-26T01:59:40.960Z,15.44
2017-07-26T02:00:29.902Z,15.42
2017-07-26T02:01:29.969Z,15.42
2017-07-26T02:02:25.000Z,15.41
2017-07-26T02:03:19.091Z,15.38
2017-07-26T02:04:14.036Z,15.40
2017-07-26T02:05:15.185Z,15.42
2017-07-26T02:06:04.149Z,15.44
2017-07-26T02:06:59.221Z,15.48
2017-07-26T02:07:48.236Z,15.48
2017-07-26T02:08:36.520Z,15.46
2017-07-26T02:09:31.348Z,15.46
2017-07-26T02:10:31.334Z,15.46
2017-07-26T02:11:19.428Z,15.46
2017-07-26T02:12:14.411Z,15.50
2017-07-26T02:13:08.865Z,15.48
2017-07-26T02:13:56.791Z,15.46
2017-07-26T02:14:51.622Z,15.47
2017-07-26T02:15:51.732Z,15.46
2017-07-26T02:16:57.622Z,15.45
2017-07-26T02:17:52.640Z,15.46
2017-07-26T02:18:41.889Z,15.46
2017-07-26T02:19:47.727Z,15.46
2017-07-26T02:20:41.711Z,15.48
2017-07-26T02:21:29.867Z,15.47
2017-07-26T02:22:25.009Z,15.47
2017-07-26T02:23:24.831Z,15.46
2017-07-26T02:24:19.926Z,15.46
2017-07-26T02:25:13.942Z,15.46
2017-07-26T02:26:09.085Z,15.46
2017-07-26T02:27:04.043Z,15.44
2017-07-26T02:27:58.040Z,15.40
2017-07-26T02:28:47.269Z,15.38
2017-07-26T02:29:36.442Z,15.38
2017-07-26T02:30:30.220Z,15.41
2017-07-26T02:31:30.199Z,15.43
2017-07-26T02:32:25.464Z,15.42
2017-07-26T02:33:25.529Z,15.46
2017-07-26T02:34:13.484Z,15.45
2017-07-26T02:35:02.626Z,15.48
2017-07-26T02:35:51.483Z,15.48
2017-07-26T02:36:39.750Z,15.48
2017-07-26T02:37:34.740Z,15.50
2017-07-26T02:38:29.771Z,15.48
2017-07-26T02:39:30.734Z,15.48
2017-07-26T02:40:25.610Z,15.46
2017-07-26T02:41:20.855Z,15.46
2017-07-26T02:42:20.950Z,15.47
2017-07-26T02:43:09.888Z,15.44
2017-07-26T02:44:04.061Z,15.43
2017-07-26T02:45:03.814Z,15.44
2017-07-26T02:45:57.920Z,15.44
2017-07-26T02:46:57.864Z,15.42
2017-07-26T02:47:52.938Z,15.42
2017-07-26T02:48:48.156Z,15.42
2017-07-26T02:49:48.042Z,15.40
2017-07-26T02:50:43.024Z,15.41
2017-07-26T02:51:38.093Z,15.42
2017-07-26T02:52:26.327Z,15.44
2017-07-26T02:53:20.400Z,15.46
2017-07-26T02:54:14.296Z,15.47
2017-07-26T02:55:09.241Z,15.48
2017-07-26T02:55:58.373Z,15.47
2017-07-26T02:56:53.343Z,15.46
2017-07-26T02:57:41.494Z,15.48
2017-07-26T02:58:30.598Z,15.47
2017-07-26T02:59:25.493Z,15.50
2017-07-26T03:00:19.519Z,15.52
2017-07-26T03:01:14.560Z,15.52
2017-07-26T03:02:15.671Z,15.53
2017-07-26T03:03:09.534Z,15.53
2017-07-26T03:03:58.658Z,15.51
2017-07-26T03:04:47.753Z,15.54
2017-07-26T03:05:35.726Z,15.52
2017-07-26T03:06:35.774Z,15.53
2017-07-26T03:07:30.820Z,15.53
2017-07-26T03:08:25.079Z,15.50
2017-07-26T03:09:24.874Z,15.48
2017-07-26T03:10:14.004Z,15.46
2017-07-26T03:11:02.965Z,15.42
2017-07-26T03:11:56.974Z,15.42
2017-07-26T03:12:52.141Z,15.40
2017-07-26T03:13:47.094Z,15.40
2017-07-26T03:14:41.093Z,15.41
2017-07-26T03:15:36.124Z,15.42
2017-07-26T03:16:24.214Z,15.38
2017-07-26T03:17:13.291Z,15.34
2017-07-26T03:18:01.336Z,15.32
2017-07-26T03:18:50.341Z,15.31
2017-07-26T03:19:39.461Z,15.29
2017-07-26T03:20:27.400Z,15.28
2017-07-26T03:21:22.470Z,15.30
2017-07-26T03:22:16.546Z,15.31
2017-07-26T03:23:16.554Z,15.33
2017-07-26T03:24:10.519Z,15.37
2017-07-26T03:25:04.906Z,15.38
2017-07-26T03:25:58.669Z,15.41
2017-07-26T03:26:53.660Z,15.45
2017-07-26T03:27:53.705Z,15.45
2017-07-26T03:28:48.887Z,15.44
2017-07-26T03:29:54.851Z,15.43
2017-07-26T03:30:54.849Z,15.43
2017-07-26T03:31:43.881Z,15.43
2017-07-26T03:32:37.932Z,15.44
2017-07-26T03:33:31.906Z,15.43
2017-07-26T03:34:32.269Z,15.41
2017-07-26T03:35:26.066Z,15.40
2017-07-26T03:36:26.122Z,15.37
2017-07-26T03:37:21.035Z,15.36
2017-07-26T03:38:16.140Z,15.38
2017-07-26T03:39:10.224Z,15.34
2017-07-26T03:40:10.253Z,15.39
2017-07-26T03:41:05.591Z,15.34
2017-07-26T03:42:05.401Z,15.40
2017-07-26T03:42:59.309Z,15.40
2017-07-26T03:43:53.696Z,15.44
2017-07-26T03:44:41.364Z,15.40
2017-07-26T03:45:29.448Z,15.40
2017-07-26T03:46:18.539Z,15.39
2017-07-26T03:47:12.588Z,15.38
2017-07-26T03:48:07.502Z,15.38
2017-07-26T03:48:56.635Z,15.40
2017-07-26T03:49:51.734Z,15.38
2017-07-26T03:50:51.911Z,15.38
2017-07-26T03:51:51.894Z,15.40
2017-07-26T03:52:52.814Z,15.38
2017-07-26T03:53:52.998Z,15.42
2017-07-26T03:54:47.907Z,15.44
2017-07-26T03:55:36.897Z,15.42
2017-07-26T03:56:25.959Z,15.44
2017-07-26T03:57:20.004Z,15.41
2017-07-26T03:58:15.038Z,15.45
2017-07-26T03:59:15.083Z,15.40
2017-07-26T04:00:21.032Z,15.36
2017-07-26T04:01:16.194Z,15.32
2017-07-26T04:02:10.128Z,15.30
2017-07-26T04:03:04.151Z,15.27
2017-07-26T04:03:58.275Z,15.27
2017-07-26T04:04:52.264Z,15.31
2017-07-26T04:05:47.282Z,15.32
2017-07-26T04:06:42.459Z,15.31
2017-07-26T04:07:36.417Z,15.28
2017-07-26T04:08:30.410Z,15.34
2017-07-26T04:09:25.553Z,15.37
2017-07-26T04:10:19.483Z,15.36
2017-07-26T04:11:07.618Z,15.38
2017-07-26T04:12:01.587Z,15.43
2017-07-26T04:12:55.677Z,15.47
2017-07-26T04:13:49.761Z,15.48
2017-07-26T04:14:43.829Z,15.51
2017-07-26T04:15:43.750Z,15.50
2017-07-26T04:16:37.826Z,15.53
2017-07-26T04:17:43.860Z,15.54
2017-07-26T04:18:37.941Z,15.60
2017-07-26T04:19:38.940Z,15.56
2017-07-26T04:20:33.987Z,15.58
2017-07-26T04:21:22.063Z,15.55
2017-07-26T04:22:22.026Z,15.54
2017-07-26T04:23:22.406Z,15.54
2017-07-26T04:24:22.254Z,15.55
2017-07-26T04:25:23.130Z,15.53
2017-07-26T04:26:18.119Z,15.50
2017-07-26T04:27:12.197Z,15.53
2017-07-26T04:28:06.213Z,15.52
2017-07-26T04:28:55.339Z,15.48
2017-07-26T04:29:50.425Z,15.48
2017-07-26T04:30:45.372Z,15.47
2017-07-26T04:31:33.457Z,15.48
2017-07-26T04:32:34.452Z,15.39
2017-07-26T04:33:34.502Z,15.48
2017-07-26T04:34:29.512Z,15.48
2017-07-26T04:35:24.669Z,15.48
2017-07-26T04:36:25.594Z,15.49
2017-07-26T04:37:25.622Z,15.53
2017-07-26T04:38:19.623Z,15.52
2017-07-26T04:39:08.706Z,15.54
2017-07-26T04:39:57.752Z,15.54
2017-07-26T04:40:52.859Z,15.52
2017-07-26T04:41:46.941Z,15.48
2017-07-26T04:42:40.865Z,15.49
2017-07-26T04:43:34.975Z,15.53
2017-07-26T04:44:28.927Z,15.51
2017-07-26T04:45:29.015Z,15.53
2017-07-26T04:46:29.025Z,15.47
2017-07-26T04:47:29.090Z,15.52
2017-07-26T04:48:24.563Z,15.46
2017-07-26T04:49:13.131Z,15.40
2017-07-26T04:50:07.238Z,15.40
2017-07-26T04:50:56.316Z,15.42
2017-07-26T04:51:57.299Z,15.36
2017-07-26T04:52:57.311Z,15.40
2017-07-26T04:53:52.354Z,15.44
2017-07-26T04:54:46.403Z,15.33
2017-07-26T04:55:46.419Z,15.34
2017-07-26T04:56:41.431Z,15.36
2017-07-26T04:57:41.534Z,15.36
2017-07-26T04:58:41.523Z,15.32
2017-07-26T04:59:36.512Z,15.36
2017-07-26T05:00:30.654Z,15.34
2017-07-26T05:01:24.608Z,15.36
2017-07-26T05:02:24.696Z,15.38
2017-07-26T05:03:19.717Z,15.43
2017-07-26T05:04:13.712Z,15.46
2017-07-26T05:05:14.784Z,15.44
2017-07-26T05:06:08.947Z,15.51
2017-07-26T05:07:02.960Z,15.48
2017-07-26T05:07:57.962Z,15.53
2017-07-26T05:08:58.994Z,15.50
2017-07-26T05:09:48.060Z,15.52
2017-07-26T05:10:43.071Z,15.47
2017-07-26T05:11:32.074Z,15.51
2017-07-26T05:12:27.122Z,15.54
2017-07-26T05:13:27.476Z,15.47
2017-07-26T05:14:21.326Z,15.44
2017-07-26T05:15:21.323Z,15.40
2017-07-26T05:16:16.273Z,15.44
2017-07-26T05:17:05.300Z,15.43
2017-07-26T05:17:54.376Z,15.41
2017-07-26T05:18:48.385Z,15.48
2017-07-26T05:19:43.465Z,15.48
2017-07-26T05:20:38.568Z,15.45
2017-07-26T05:21:33.522Z,15.43
2017-07-26T05:22:27.562Z,15.44
2017-07-26T05:23:28.791Z,15.39
2017-07-26T05:24:22.632Z,15.42
2017-07-26T05:25:16.710Z,15.38
2017-07-26T05:26:05.790Z,15.36
2017-07-26T05:27:05.712Z,15.34
2017-07-26T05:28:00.809Z,15.33
2017-07-26T05:28:54.917Z,15.34
2017-07-26T05:29:54.926Z,15.40
2017-07-26T05:30:49.951Z,15.38
2017-07-26T05:31:45.029Z,15.42
2017-07-26T05:32:44.999Z,15.44
2017-07-26T05:33:40.028Z,15.58
2017-07-26T05:34:40.081Z,15.65
2017-07-26T05:35:41.367Z,15.86
2017-07-26T05:36:41.420Z,15.98
2017-07-26T05:37:36.354Z,16.04
2017-07-26T05:38:30.467Z,16.00
2017-07-26T05:39:30.538Z,16.06
2017-07-26T05:40:30.555Z,16.14
2017-07-26T05:41:24.614Z,16.27
2017-07-26T05:42:13.676Z,16.21
2017-07-26T05:43:01.717Z,16.32
2017-07-26T05:44:01.802Z,16.32
2017-07-26T05:44:55.772Z,16.12
2017-07-26T05:45:50.777Z,16.12
2017-07-26T05:46:39.932Z,16.24
2017-07-26T05:47:34.927Z,16.16
2017-07-26T05:48:24.098Z,16.06
2017-07-26T05:49:12.041Z,16.18
2017-07-26T05:50:06.133Z,16.11
2017-07-26T05:51:00.122Z,16.01
2017-07-26T05:51:54.170Z,16.16
2017-07-26T05:52:49.176Z,16.24
2017-07-26T05:53:37.278Z,16.42
2017-07-26T05:54:37.232Z,16.50
2017-07-26T05:55:26.230Z,16.56
2017-07-26T05:56:26.385Z,16.58
2017-07-26T05:57:26.414Z,16.32
2017-07-26T05:58:20.562Z,16.22
2017-07-26T05:59:14.445Z,16.18
2017-07-26T06:00:08.511Z,16.28
2017-07-26T06:00:57.556Z,16.28
2017-07-26T06:01:57.558Z,16.37
2017-07-26T06:02:57.660Z,16.37
2017-07-26T06:03:51.662Z,16.48
2017-07-26T06:04:52.741Z,16.55
2017-07-26T06:05:46.806Z,16.58
2017-07-26T06:06:34.863Z,16.58
2017-07-26T06:07:23.880Z,16.75
2017-07-26T06:08:11.933Z,17.13
2017-07-26T06:08:59.978Z,17.18
2017-07-26T06:09:54.027Z,17.43
2017-07-26T06:10:48.024Z,17.77
2017-07-26T06:11:36.133Z,18.17
2017-07-26T06:12:25.222Z,18.15
2017-07-26T06:13:25.218Z,18.18
2017-07-26T06:14:20.530Z,18.47
2017-07-26T06:15:14.271Z,18.51
2017-07-26T06:16:03.384Z,18.90
2017-07-26T06:16:51.444Z,18.42
2017-07-26T06:17:45.433Z,18.37
2017-07-26T06:18:39.487Z,18.53
2017-07-26T06:19:33.603Z,18.46
2017-07-26T06:20:33.660Z,18.74
2017-07-26T06:21:22.568Z,18.74
2017-07-26T06:22:16.680Z,18.79
2017-07-26T06:23:16.735Z,19.11
2017-07-26T06:24:11.735Z,19.15
2017-07-26T06:25:00.852Z,19.38
2017-07-26T06:26:00.788Z,19.52
2017-07-26T06:26:49.997Z,20.01
2017-07-26T06:27:44.864Z,20.39
2017-07-26T06:28:39.980Z,20.65
2017-07-26T06:29:34.004Z,20.97
2017-07-26T06:30:29.155Z,21.56
2017-07-26T06:31:24.221Z,21.36
2017-07-26T06:32:13.270Z,21.28
2017-07-26T06:33:08.301Z,20.88
2017-07-26T06:34:02.391Z,21.40
2017-07-26T06:34:56.388Z,21.69
2017-07-26T06:35:53.242Z,21.68
2017-07-26T06:36:44.529Z,21.72
2017-07-26T06:37:38.623Z,21.74
2017-07-26T06:38:32.646Z,21.69
2017-07-26T06:39:32.657Z,21.87
2017-07-26T06:40:20.821Z,22.26
2017-07-26T06:41:14.802Z,22.26
2017-07-26T06:42:08.912Z,21.94
2017-07-26T06:43:04.029Z,22.26
2017-07-26T06:43:53.070Z,22.60
2017-07-26T06:44:47.951Z,22.50
2017-07-26T06:45:42.085Z,22.82
2017-07-26T06:46:36.191Z,23.02
2017-07-26T06:47:30.299Z,22.88
2017-07-26T06:48:24.362Z,23.01
2017-07-26T06:49:12.455Z,23.49
2017-07-26T06:50:12.584Z,23.28
2017-07-26T06:51:07.609Z,23.67
2017-07-26T06:51:56.714Z,22.97
2017-07-26T06:52:50.704Z,22.74
2017-07-26T06:53:45.735Z,22.73
2017-07-26T06:54:34.913Z,22.39
2017-07-26T06:55:28.913Z,22.07
2017-07-26T06:56:17.997Z,22.03
2017-07-26T06:57:06.133Z,21.85
2017-07-26T06:58:01.062Z,22.04
2017-07-26T06:58:55.186Z,21.51
2017-07-26T06:59:44.251Z,21.38
2017-07-26T07:00:45.365Z,21.15
2017-07-26T07:01:34.359Z,20.92
2017-07-26T07:02:28.404Z,20.44
2017-07-26T07:03:17.487Z,19.89
2017-07-26T07:04:12.562Z,19.48
2017-07-26T07:05:07.566Z,19.49
2017-07-26T07:06:01.680Z,19.96
2017-07-26T07:07:01.659Z,20.38
2017-07-26T07:07:50.877Z,21.20
2017-07-26T07:08:44.879Z,21.08
2017-07-26T07:09:44.887Z,21.28
2017-07-26T07:10:45.031Z,20.96
2017-07-26T07:11:39.041Z,20.56
2017-07-26T07:12:33.100Z,20.37
2017-07-26T07:13:27.224Z,20.34
2017-07-26T07:14:27.180Z,20.22
2017-07-26T07:15:16.329Z,19.68
2017-07-26T07:16:10.316Z,19.10
2017-07-26T07:17:10.377Z,18.33
2017-07-26T07:18:04.367Z,17.80
2017-07-26T07:19:04.513Z,17.63
2017-07-26T07:19:53.515Z,17.70
2017-07-26T07:20:48.582Z,17.72
2017-07-26T07:21:42.669Z,17.33
2017-07-26T07:22:37.685Z,17.37
2017-07-26T07:23:37.800Z,17.68
2017-07-26T07:24:37.861Z,17.44
2017-07-26T07:25:26.891Z,17.40
2017-07-26T07:26:21.954Z,17.54
2017-07-26T07:27:15.995Z,17.34
2017-07-26T07:28:11.032Z,17.45
2017-07-26T07:29:06.154Z,17.50
2017-07-26T07:29:54.149Z,17.92
2017-07-26T07:30:43.257Z,18.16
2017-07-26T07:31:32.236Z,18.70
2017-07-26T07:32:26.291Z,18.78
2017-07-26T07:33:20.384Z,18.34
2017-07-26T07:34:15.471Z,18.57
2017-07-26T07:35:10.497Z,18.41
2017-07-26T07:36:10.521Z,18.05
2017-07-26T07:37:05.647Z,18.21
2017-07-26T07:38:00.609Z,18.59
2017-07-26T07:38:54.734Z,18.18
2017-07-26T07:39:49.746Z,18.12
2017-07-26T07:40:50.212Z,18.19
2017-07-26T07:41:44.904Z,18.23
2017-07-26T07:42:44.920Z,17.69
2017-07-26T07:43:38.971Z,17.58
2017-07-26T07:44:38.975Z,17.97
2017-07-26T07:45:33.078Z,18.14
2017-07-26T07:46:27.170Z,18.42
2017-07-26T07:47:16.189Z,18.83
2017-07-26T07:48:10.207Z,19.32
2017-07-26T07:49:04.305Z,19.81
2017-07-26T07:49:52.340Z,20.31
2017-07-26T07:50:46.365Z,20.91
2017-07-26T07:51:40.529Z,20.80
2017-07-26T07:52:34.556Z,21.51
2017-07-26T07:53:29.788Z,22.10
2017-07-26T07:54:17.690Z,22.34
2017-07-26T07:55:12.701Z,22.79
2017-07-26T07:56:06.809Z,23.28
2017-07-26T07:57:00.924Z,23.13
2017-07-26T07:57:54.892Z,22.30
2017-07-26T07:58:48.936Z,22.79
2017-07-26T07:59:50.035Z,21.94
2017-07-26T08:00:49.982Z,21.47
2017-07-26T08:01:44.088Z,21.94
2017-07-26T08:02:38.172Z,22.38
2017-07-26T08:03:32.226Z,23.35
2017-07-26T08:04:33.303Z,23.44
2017-07-26T08:05:22.311Z,22.97
2017-07-26T08:06:22.377Z,23.53
2017-07-26T08:07:16.559Z,23.96
2017-07-26T08:08:10.474Z,23.71
2017-07-26T08:09:04.584Z,23.98
2017-07-26T08:10:04.656Z,24.46
2017-07-26T08:10:58.674Z,24.50
2017-07-26T08:11:53.792Z,24.58
2017-07-26T08:12:42.825Z,24.80
2017-07-26T08:13:37.829Z,24.34
2017-07-26T08:14:26.978Z,23.69
2017-07-26T08:15:21.031Z,23.15
2017-07-26T08:16:14.988Z,22.63
2017-07-26T08:17:03.169Z,22.15
2017-07-26T08:17:57.193Z,21.02
2017-07-26T08:18:51.268Z,20.12
2017-07-26T08:19:46.332Z,19.19
2017-07-26T08:20:40.411Z,18.46
2017-07-26T08:21:34.387Z,18.64
2017-07-26T08:22:29.460Z,19.22
2017-07-26T08:23:23.551Z,19.02
2017-07-26T08:24:12.658Z,18.73
2017-07-26T08:25:18.645Z,18.32
2017-07-26T08:26:13.696Z,17.96
2017-07-26T08:27:07.871Z,17.69
2017-07-26T08:28:07.838Z,17.40
2017-07-26T08:29:01.887Z,17.48
2017-07-26T08:29:51.046Z,17.38
2017-07-26T08:30:38.986Z,17.36
2017-07-26T08:31:33.028Z,18.04
2017-07-26T08:32:33.057Z,18.62
2017-07-26T08:33:22.175Z,18.70
2017-07-26T08:34:11.245Z,18.65
2017-07-26T08:34:59.231Z,18.50
2017-07-26T08:35:54.408Z,18.58
2017-07-26T08:36:54.403Z,18.89
2017-07-26T08:37:48.458Z,19.22
2017-07-26T08:38:43.508Z,19.47
2017-07-26T08:39:32.583Z,19.20
2017-07-26T08:40:27.632Z,19.08
2017-07-26T08:41:16.661Z,19.36
2017-07-26T08:42:22.773Z,19.43
2017-07-26T08:43:16.742Z,20.09
2017-07-26T08:44:11.771Z,21.18
2017-07-26T08:45:11.940Z,21.41
2017-07-26T08:46:01.000Z,21.74
2017-07-26T08:46:55.990Z,22.53
2017-07-26T08:47:56.063Z,22.48
2017-07-26T08:48:45.165Z,23.12
2017-07-26T08:49:34.162Z,22.63
2017-07-26T08:50:28.197Z,22.76
2017-07-26T08:51:23.304Z,23.06
2017-07-26T08:52:23.381Z,23.78
2017-07-26T08:53:17.382Z,24.06
2017-07-26T08:54:17.492Z,24.35
2017-07-26T08:55:12.527Z,24.56
2017-07-26T08:56:06.617Z,23.99
2017-07-26T08:57:00.644Z,23.33
2017-07-26T08:58:00.732Z,22.42
2017-07-26T08:59:00.713Z,21.00
2017-07-26T08:59:54.777Z,20.12
2017-07-26T09:00:49.842Z,19.94
2017-07-26T09:01:38.879Z,20.64
2017-07-26T09:02:34.035Z,21.30
2017-07-26T09:03:23.033Z,21.62
2017-07-26T09:04:17.144Z,22.56
2017-07-26T09:05:12.228Z,22.48
2017-07-26T09:06:06.200Z,22.00
2017-07-26T09:06:55.228Z,21.72
2017-07-26T09:07:44.322Z,21.37
2017-07-26T09:08:33.422Z,21.32
2017-07-26T09:09:34.419Z,21.08
2017-07-26T09:10:29.514Z,21.06
2017-07-26T09:11:24.537Z,22.06
2017-07-26T09:12:19.572Z,23.50
2017-07-26T09:13:08.715Z,23.94
2017-07-26T09:14:02.751Z,24.54
2017-07-26T09:15:02.862Z,24.58
2017-07-26T09:16:02.823Z,25.14
2017-07-26T09:16:56.919Z,25.06
2017-07-26T09:17:44.985Z,24.44
2017-07-26T09:18:40.108Z,23.92
2017-07-26T09:19:40.085Z,24.28
2017-07-26T09:20:34.078Z,24.72
2017-07-26T09:21:29.173Z,24.66
2017-07-26T09:22:29.228Z,24.84
2017-07-26T09:23:18.259Z,25.54
2017-07-26T09:24:06.384Z,25.85
2017-07-26T09:25:00.451Z,26.16
2017-07-26T09:25:54.467Z,26.19
2017-07-26T09:26:54.577Z,26.62
2017-07-26T09:27:49.748Z,26.56
2017-07-26T09:28:43.668Z,26.29
2017-07-26T09:29:32.798Z,25.52
2017-07-26T09:30:21.833Z,24.56
2017-07-26T09:31:10.894Z,23.71
2017-07-26T09:32:05.992Z,22.68
2017-07-26T09:33:05.960Z,21.92
2017-07-26T09:34:00.044Z,21.84
2017-07-26T09:34:55.132Z,21.89
2017-07-26T09:35:49.228Z,22.41
2017-07-26T09:36:43.284Z,22.90
2017-07-26T09:37:37.268Z,23.28
2017-07-26T09:38:37.441Z,23.80
2017-07-26T09:39:32.418Z,24.33
2017-07-26T09:40:21.502Z,24.10
2017-07-26T09:41:15.535Z,24.40
2017-07-26T09:42:04.569Z,24.62
2017-07-26T09:42:58.674Z,23.94
2017-07-26T09:43:53.761Z,23.88
2017-07-26T09:44:47.868Z,24.40
2017-07-26T09:45:36.929Z,24.44
2017-07-26T09:46:30.958Z,24.76
2017-07-26T09:47:26.007Z,24.43
2017-07-26T09:48:21.079Z,24.18
2017-07-26T09:49:10.123Z,24.00
2017-07-26T09:50:04.185Z,24.06
2017-07-26T09:51:04.360Z,23.99
2017-07-26T09:51:53.277Z,24.42
2017-07-26T09:52:42.399Z,24.01
2017-07-26T09:53:36.482Z,23.47
2017-07-26T09:54:25.526Z,23.17
2017-07-26T09:55:19.572Z,22.91
2017-07-26T09:56:14.619Z,22.45
2017-07-26T09:57:08.669Z,22.50
2017-07-26T09:58:03.758Z,22.43
2017-07-26T09:58:52.784Z,22.78
2017-07-26T09:59:46.849Z,23.16
2017-07-26T10:00:40.882Z,23.41
2017-07-26T10:01:30.005Z,23.24
2017-07-26T10:02:24.140Z,23.20
2017-07-26T10:03:12.070Z,23.20
2017-07-26T10:04:06.190Z,23.02
2017-07-26T10:04:54.289Z,22.34
2017-07-26T10:05:54.316Z,21.33
2017-07-26T10:06:49.362Z,21.35
2017-07-26T10:07:38.439Z,21.43
2017-07-26T10:08:33.599Z,21.67
2017-07-26T10:09:27.568Z,21.96
2017-07-26T10:10:22.666Z,22.10
2017-07-26T10:11:22.639Z,23.23
2017-07-26T10:12:16.764Z,23.50
2017-07-26T10:13:11.845Z,23.58
2017-07-26T10:14:06.604Z,23.58
2017-07-26T10:15:00.913Z,23.89
2017-07-26T10:16:01.000Z,24.19
2017-07-26T10:16:55.070Z,24.62
2017-07-26T10:17:56.173Z,24.74
2017-07-26T10:18:50.151Z,24.60
2017-07-26T10:19:38.214Z,24.37
2017-07-26T10:20:38.299Z,23.99
2017-07-26T10:21:32.380Z,23.40
2017-07-26T10:22:27.383Z,22.93
2017-07-26T10:23:15.519Z,22.59
2017-07-26T10:24:03.572Z,22.19
2017-07-26T10:24:51.664Z,21.63
2017-07-26T10:25:40.647Z,20.68
2017-07-26T10:26:34.757Z,20.50
2017-07-26T10:27:23.778Z,20.13
2017-07-26T10:28:18.828Z,19.73
2017-07-26T10:29:07.870Z,19.40
2017-07-26T10:30:01.933Z,19.90
2017-07-26T10:30:51.042Z,20.42
2017-07-26T10:31:40.080Z,21.56
2017-07-26T10:32:40.193Z,21.49
2017-07-26T10:33:35.257Z,22.26
2017-07-26T10:34:30.280Z,22.98
2017-07-26T10:35:24.286Z,22.98
2017-07-26T10:36:13.360Z,23.00
2017-07-26T10:37:07.430Z,23.35
2017-07-26T10:38:01.460Z,23.26
2017-07-26T10:39:01.613Z,23.26
2017-07-26T10:39:56.697Z,23.77
2017-07-26T10:40:56.751Z,23.92
2017-07-26T10:41:50.766Z,23.75
2017-07-26T10:42:44.763Z,23.33
2017-07-26T10:43:38.914Z,23.09
2017-07-26T10:44:26.957Z,23.04
2017-07-26T10:45:15.993Z,22.56
2017-07-26T10:46:11.075Z,22.31
2017-07-26T10:47:11.025Z,22.37
2017-07-26T10:48:05.150Z,22.32
2017-07-26T10:48:59.205Z,22.15
2017-07-26T10:49:59.297Z,21.77
2017-07-26T10:50:54.370Z,21.36
2017-07-26T10:51:48.341Z,21.11
2017-07-26T10:52:37.409Z,20.67
2017-07-26T10:53:32.554Z,20.68
2017-07-26T10:54:27.524Z,20.31
2017-07-26T10:55:16.682Z,19.65
2017-07-26T10:56:05.706Z,19.81
2017-07-26T10:56:54.792Z,19.78
2017-07-26T10:57:54.786Z,19.54
2017-07-26T10:58:43.773Z,19.38
2017-07-26T10:59:43.923Z,19.47
2017-07-26T11:00:39.005Z,20.85
2017-07-26T11:01:26.948Z,21.94
2017-07-26T11:02:21.037Z,22.96
2017-07-26T11:03:15.173Z,23.41
2017-07-26T11:04:03.229Z,24.14
2017-07-26T11:04:52.190Z,24.52
2017-07-26T11:05:46.398Z,25.03
2017-07-26T11:06:41.395Z,25.50
2017-07-26T11:07:35.383Z,25.98
2017-07-26T11:08:29.550Z,25.85
2017-07-26T11:09:24.508Z,25.44
2017-07-26T11:10:18.600Z,24.92
2017-07-26T11:11:12.684Z,24.39
2017-07-26T11:12:07.709Z,24.04
2017-07-26T11:13:01.748Z,24.02
2017-07-26T11:14:01.840Z,24.03
2017-07-26T11:14:55.931Z,24.01
2017-07-26T11:15:49.943Z,23.65
2017-07-26T11:16:49.996Z,23.81
2017-07-26T11:17:50.076Z,24.53
2017-07-26T11:18:45.077Z,25.36
2017-07-26T11:19:39.162Z,25.89
2017-07-26T11:20:33.242Z,26.31
2017-07-26T11:21:28.354Z,26.52
2017-07-26T11:22:22.448Z,26.20
2017-07-26T11:23:10.436Z,26.18
2017-07-26T11:24:16.572Z,26.18
2017-07-26T11:25:05.504Z,26.41
2017-07-26T11:25:59.688Z,26.65
2017-07-26T11:26:48.660Z,27.28
2017-07-26T11:27:48.881Z,28.03
2017-07-26T11:28:42.945Z,28.27
2017-07-26T11:29:37.928Z,28.20
2017-07-26T11:30:31.996Z,27.86
2017-07-26T11:31:27.069Z,27.66
2017-07-26T11:32:16.059Z,27.72
2017-07-26T11:33:16.208Z,26.99
2017-07-26T11:34:10.193Z,26.19
2017-07-26T11:34:59.280Z,25.85
2017-07-26T11:35:54.365Z,25.54
2017-07-26T11:36:48.366Z,25.48
2017-07-26T11:37:42.500Z,25.72
2017-07-26T11:38:31.702Z,25.50
2017-07-26T11:39:19.554Z,25.11
2017-07-26T11:40:13.683Z,24.70